createdAt,value
2023-02-07T00:01:26.669Z,100.00
2023-02-07T00:03:55.275Z,100.00
2023-02-07T00:06:29.672Z,100.00
2023-02-07T00:08:59.160Z,100.00
2023-02-07T00:11:26.271Z,100.00
2023-02-07T00:13:55.707Z,100.00
2023-02-07T00:16:25.598Z,100.00
2023-02-07T00:18:53.413Z,100.00
2023-02-07T00:21:23.543Z,100.00
2023-02-07T00:23:51.205Z,100.00
2023-02-07T00:26:20.926Z,100.00
2023-02-07T00:28:50.195Z,100.00
2023-02-07T00:31:23.983Z,100.00
2023-02-07T00:33:53.764Z,100.00
2023-02-07T00:36:24.136Z,100.00
2023-02-07T00:38:51.267Z,100.00
2023-02-07T00:41:19.301Z,100.00
2023-02-07T00:43:48.033Z,100.00
2023-02-07T00:46:15.861Z,100.00
2023-02-07T00:48:43.078Z,100.00
2023-02-07T00:51:12.320Z,100.00
2023-02-07T00:53:40.252Z,100.00
2023-02-07T00:56:08.609Z,100.00
2023-02-07T00:58:36.005Z,100.00
2023-02-07T01:01:03.779Z,100.00
2023-02-07T01:03:32.461Z,100.00
2023-02-07T01:05:59.393Z,100.00
2023-02-07T01:08:27.055Z,100.00
2023-02-07T01:10:54.151Z,100.00
2023-02-07T01:13:21.797Z,100.00
2023-02-07T01:15:50.548Z,100.00
2023-02-07T01:18:17.825Z,100.00
2023-02-07T01:20:45.101Z,100.00
2023-02-07T01:23:13.444Z,100.00
2023-02-07T01:25:41.453Z,100.00
2023-02-07T01:28:08.500Z,100.00
2023-02-07T01:30:35.577Z,100.00
2023-02-07T01:33:02.654Z,100.00
2023-02-07T01:35:29.575Z,100.00
2023-02-07T01:37:58.345Z,100.00
2023-02-07T01:40:27.177Z,100.00
2023-02-07T01:42:54.152Z,100.00
2023-02-07T01:45:38.699Z,100.00
2023-02-07T01:48:25.280Z,100.00
2023-02-07T01:50:55.611Z,100.00
2023-02-07T01:53:25.931Z,100.00
2023-02-07T01:55:58.424Z,100.00
2023-02-07T01:58:26.025Z,100.00
2023-02-07T02:00:53.105Z,100.00
2023-02-07T02:03:20.098Z,100.00
2023-02-07T02:05:50.164Z,100.00
2023-02-07T02:08:17.123Z,100.00
2023-02-07T02:11:36.954Z,100.00
2023-02-07T02:14:16.742Z,100.00
2023-02-07T02:17:07.608Z,100.00
2023-02-07T02:20:14.968Z,100.00
2023-02-07T02:22:59.283Z,100.00
2023-02-07T02:25:58.504Z,100.00
2023-02-07T02:29:06.134Z,100.00
2023-02-07T02:32:16.900Z,100.00
2023-02-07T02:35:22.416Z,100.00
2023-02-07T02:38:14.652Z,100.00
2023-02-07T02:41:25.719Z,100.00
2023-02-07T02:44:33.438Z,100.00
2023-02-07T02:47:03.069Z,100.00
2023-02-07T02:49:33.194Z,100.00
2023-02-07T02:52:00.245Z,100.00
2023-02-07T02:54:39.141Z,100.00
2023-02-07T02:57:20.907Z,100.00
2023-02-07T03:00:36.423Z,100.00
2023-02-07T03:03:40.618Z,100.00
2023-02-07T03:06:33.357Z,100.00
2023-02-07T03:09:22.695Z,100.00
2023-02-07T03:12:05.527Z,100.00
2023-02-07T03:15:05.105Z,100.00
2023-02-07T03:17:53.839Z,100.00
2023-02-07T03:20:32.504Z,100.00
2023-02-07T03:23:02.503Z,100.00
2023-02-07T03:25:31.830Z,100.00
2023-02-07T03:27:59.422Z,100.00
2023-02-07T03:30:33.521Z,100.00
2023-02-07T03:33:08.640Z,100.00
2023-02-07T03:35:42.790Z,100.00
2023-02-07T03:38:12.212Z,100.00
2023-02-07T03:40:51.474Z,100.00
2023-02-07T03:43:38.461Z,100.00
2023-02-07T03:46:08.281Z,100.00
2023-02-07T03:48:35.401Z,100.00
2023-02-07T03:51:02.372Z,100.00
2023-02-07T03:53:29.347Z,100.00
2023-02-07T03:55:56.280Z,100.00
2023-02-07T03:58:23.262Z,100.00
2023-02-07T04:00:50.446Z,100.00
2023-02-07T04:03:17.421Z,100.00
2023-02-07T04:05:46.181Z,100.00
2023-02-07T04:08:13.102Z,100.00
2023-02-07T04:10:40.012Z,100.00
2023-02-07T04:13:07.032Z,100.00
2023-02-07T04:15:34.179Z,100.00
2023-02-07T04:18:01.103Z,100.00
2023-02-07T04:20:28.077Z,100.00
2023-02-07T04:22:55.041Z,100.00
2023-02-07T04:25:22.103Z,100.00
2023-02-07T04:27:51.271Z,100.00
2023-02-07T04:30:18.300Z,100.00
2023-02-07T04:32:45.198Z,100.00
2023-02-07T04:35:12.195Z,100.00
2023-02-07T04:37:40.648Z,100.00
2023-02-07T04:40:08.457Z,100.00
2023-02-07T04:42:35.431Z,100.00
2023-02-07T04:45:02.409Z,100.00
2023-02-07T04:47:29.359Z,100.00
2023-02-07T04:49:56.355Z,100.00
2023-02-07T04:52:23.351Z,100.00
2023-02-07T04:54:50.307Z,100.00
2023-02-07T04:57:17.307Z,100.00
2023-02-07T04:59:44.239Z,100.00
2023-02-07T05:02:11.288Z,100.00
2023-02-07T05:04:38.745Z,100.00
2023-02-07T05:07:05.758Z,100.00
2023-02-07T05:09:32.754Z,100.00
2023-02-07T05:11:59.684Z,100.00
2023-02-07T05:14:26.626Z,100.00
2023-02-07T05:16:53.714Z,100.00
2023-02-07T05:19:20.751Z,100.00
2023-02-07T05:21:47.694Z,100.00
2023-02-07T05:24:14.647Z,100.00
2023-02-07T05:26:41.673Z,100.00
2023-02-07T05:29:08.682Z,100.00
2023-02-07T05:31:54.254Z,100.00
2023-02-07T05:34:21.366Z,100.00
2023-02-07T05:36:48.322Z,100.00
2023-02-07T05:39:15.308Z,100.00
2023-02-07T05:41:42.224Z,100.00
2023-02-07T05:44:09.252Z,100.00
2023-02-07T05:46:36.268Z,100.00
2023-02-07T05:49:03.398Z,100.00
2023-02-07T05:51:30.375Z,100.00
2023-02-07T05:53:57.355Z,100.00
2023-02-07T05:56:24.327Z,100.00
2023-02-07T05:58:51.388Z,100.00
2023-02-07T06:01:18.361Z,100.00
2023-02-07T06:03:45.349Z,100.00
2023-02-07T06:06:12.338Z,100.00
2023-02-07T06:08:39.307Z,100.00
2023-02-07T06:11:06.338Z,100.00
2023-02-07T06:13:33.440Z,100.00
2023-02-07T06:16:00.375Z,100.00
2023-02-07T06:18:27.419Z,100.00
2023-02-07T06:20:54.395Z,100.00
2023-02-07T06:23:23.027Z,100.00
2023-02-07T06:25:50.010Z,100.00
2023-02-07T06:28:17.011Z,100.00
2023-02-07T06:30:44.047Z,100.00
2023-02-07T06:33:11.256Z,100.00
2023-02-07T06:35:39.154Z,100.00
2023-02-07T06:38:06.439Z,100.00
2023-02-07T06:40:33.463Z,100.00
2023-02-07T06:43:00.615Z,100.00
2023-02-07T06:45:27.683Z,100.00
2023-02-07T06:48:02.328Z,100.00
2023-02-07T06:50:30.268Z,100.00
2023-02-07T06:53:02.038Z,100.00
2023-02-07T06:55:36.989Z,100.00
2023-02-07T06:58:05.041Z,100.00
2023-02-07T07:00:32.097Z,100.00
2023-02-07T07:03:00.369Z,100.00
2023-02-07T07:05:29.471Z,100.00
2023-02-07T07:07:57.231Z,100.00
2023-02-07T07:10:24.482Z,100.00
2023-02-07T07:12:51.625Z,100.00
2023-02-07T07:15:18.567Z,100.00
2023-02-07T07:17:45.547Z,100.00
2023-02-07T07:20:13.052Z,100.00
2023-02-07T07:22:40.216Z,100.00
2023-02-07T07:25:07.791Z,100.00
2023-02-07T07:27:34.704Z,100.00
2023-02-07T07:30:01.662Z,100.00
2023-02-07T07:35:17.618Z,100.00
2023-02-07T07:37:45.640Z,100.00
2023-02-07T07:40:12.601Z,100.00
2023-02-07T07:42:40.062Z,100.00
2023-02-07T07:45:20.137Z,100.00
2023-02-07T07:47:47.145Z,100.00
2023-02-07T07:50:14.718Z,100.00
2023-02-07T07:52:42.979Z,100.00
2023-02-07T07:55:10.490Z,100.00
2023-02-07T07:57:37.703Z,100.00
2023-02-07T08:00:06.412Z,100.00
2023-02-07T08:02:41.201Z,100.00
2023-02-07T08:05:08.565Z,100.00
2023-02-07T08:07:35.555Z,100.00
2023-02-07T08:10:02.604Z,100.00
2023-02-07T08:12:29.571Z,100.00
2023-02-07T08:14:56.488Z,100.00
2023-02-07T08:17:23.446Z,100.00
2023-02-07T08:19:50.376Z,100.00
2023-02-07T08:22:17.323Z,100.00
2023-02-07T08:24:44.254Z,100.00
2023-02-07T08:27:11.255Z,100.00
2023-02-07T08:29:38.258Z,100.00
2023-02-07T08:32:05.638Z,100.00
2023-02-07T08:34:37.348Z,100.00
2023-02-07T08:37:06.806Z,100.00
2023-02-07T08:39:35.700Z,100.00
2023-02-07T08:42:05.388Z,100.00
2023-02-07T08:44:32.484Z,100.00
2023-02-07T08:46:59.534Z,100.00
2023-02-07T08:49:26.529Z,100.00
2023-02-07T08:51:53.600Z,100.00
2023-02-07T08:54:20.543Z,100.00
2023-02-07T08:56:47.461Z,100.00
2023-02-07T08:59:14.518Z,100.00
2023-02-07T09:01:41.460Z,100.00
2023-02-07T09:04:09.873Z,100.00
2023-02-07T09:06:36.968Z,100.00
2023-02-07T09:09:04.659Z,100.00
2023-02-07T09:11:31.941Z,100.00
2023-02-07T09:13:59.089Z,100.00
2023-02-07T09:16:26.119Z,100.00
2023-02-07T09:18:53.292Z,100.00
2023-02-07T09:21:20.548Z,100.00
2023-02-07T09:23:47.583Z,100.00
2023-02-07T09:26:21.636Z,100.00
2023-02-07T09:28:49.316Z,100.00
2023-02-07T09:31:16.649Z,100.00
2023-02-07T09:33:43.885Z,100.00
2023-02-07T09:36:24.645Z,100.00
2023-02-07T09:38:53.644Z,100.00
2023-02-07T09:41:48.764Z,100.00
2023-02-07T09:44:42.920Z,100.00
2023-02-07T09:47:22.738Z,100.00
2023-02-07T09:50:04.018Z,100.00
2023-02-07T09:52:52.402Z,100.00
2023-02-07T09:56:02.093Z,100.00
2023-02-07T09:59:02.472Z,100.00
2023-02-07T10:01:44.703Z,100.00
2023-02-07T10:04:23.447Z,100.00
2023-02-07T10:06:53.798Z,100.00
2023-02-07T10:09:33.691Z,100.00
2023-02-07T10:12:21.555Z,100.00
2023-02-07T10:15:03.765Z,100.00
2023-02-07T10:18:17.768Z,100.00
2023-02-07T10:21:44.637Z,100.00
2023-02-07T10:24:49.630Z,100.00
2023-02-07T10:27:29.894Z,100.00
2023-02-07T10:30:34.275Z,100.00
2023-02-07T10:33:13.921Z,100.00
2023-02-07T10:35:42.836Z,100.00
2023-02-07T10:38:38.367Z,100.00
2023-02-07T10:41:25.566Z,100.00
2023-02-07T10:43:52.643Z,100.00
2023-02-07T10:46:22.773Z,100.00
2023-02-07T10:48:50.381Z,100.00
2023-02-07T10:51:37.982Z,100.00
2023-02-07T10:54:20.268Z,100.00
2023-02-07T10:57:02.513Z,100.00
2023-02-07T10:59:46.894Z,100.00
2023-02-07T11:02:29.208Z,100.00
2023-02-07T11:04:59.550Z,100.00
2023-02-07T11:07:29.366Z,100.00
2023-02-07T11:10:24.015Z,100.00
2023-02-07T11:12:57.663Z,100.00
2023-02-07T11:15:47.835Z,100.00
2023-02-07T11:18:38.887Z,100.00
2023-02-07T11:21:34.376Z,100.00
2023-02-07T11:24:09.135Z,100.00
2023-02-07T11:27:12.528Z,100.00
2023-02-07T11:29:58.125Z,100.00
2023-02-07T11:32:28.377Z,72.70
2023-02-07T11:35:11.440Z,72.50
2023-02-07T11:38:21.345Z,72.21
2023-02-07T11:40:51.683Z,71.11
2023-02-07T11:43:24.875Z,71.34
2023-02-07T11:46:15.731Z,71.41
2023-02-07T11:49:13.311Z,71.08
2023-02-07T11:54:59.094Z,70.91
2023-02-07T11:57:32.684Z,71.69
2023-02-07T12:00:19.318Z,71.81
2023-02-07T12:03:04.518Z,71.92
2023-02-07T12:05:45.636Z,69.99
2023-02-07T12:08:22.961Z,71.36
2023-02-07T12:10:56.325Z,70.22
2023-02-07T12:13:35.821Z,70.14
2023-02-07T12:16:12.963Z,69.52
2023-02-07T12:18:55.182Z,69.12
2023-02-07T12:21:36.911Z,67.68
2023-02-07T12:24:13.365Z,68.27
2023-02-07T12:26:48.384Z,66.03
2023-02-07T12:29:43.406Z,65.48
2023-02-07T12:32:44.207Z,65.35
2023-02-07T12:35:20.487Z,66.94
2023-02-07T12:38:25.309Z,65.13
2023-02-07T12:41:02.559Z,61.97
2023-02-07T12:43:37.939Z,62.20
2023-02-07T12:46:37.049Z,63.04
2023-02-07T12:49:23.231Z,60.35
2023-02-07T12:52:17.203Z,59.80
2023-02-07T12:55:13.648Z,60.33
2023-02-07T12:58:17.918Z,60.25
2023-02-07T13:01:01.386Z,59.55
2023-02-07T13:03:50.652Z,59.49
2023-02-07T13:06:49.443Z,58.41
2023-02-07T13:09:48.410Z,57.99
2023-02-07T13:12:30.079Z,57.81
2023-02-07T13:15:37.515Z,56.66
2023-02-07T13:18:20.128Z,57.09
2023-02-07T13:21:22.603Z,58.17
2023-02-07T13:23:50.517Z,57.29
2023-02-07T13:26:22.196Z,57.75
2023-02-07T13:29:03.800Z,59.45
2023-02-07T13:31:38.455Z,58.23
2023-02-07T13:34:12.577Z,57.98
2023-02-07T13:36:50.378Z,57.84
2023-02-07T13:39:49.172Z,58.52
2023-02-07T13:42:36.586Z,57.45
2023-02-07T13:45:39.372Z,56.51
2023-02-07T13:48:32.853Z,55.65
2023-02-07T13:51:12.005Z,55.96
2023-02-07T13:53:47.042Z,56.27
2023-02-07T13:56:33.974Z,54.83
2023-02-07T13:59:20.580Z,55.67
2023-02-07T14:01:58.400Z,56.33
2023-02-07T14:04:25.792Z,56.13
2023-02-07T14:07:03.702Z,55.85
2023-02-07T14:09:37.877Z,55.11
2023-02-07T14:12:16.168Z,54.91
2023-02-07T14:14:48.667Z,55.89
2023-02-07T14:17:30.089Z,55.93
2023-02-07T14:19:59.787Z,55.12
2023-02-07T14:22:29.614Z,55.07
2023-02-07T14:24:59.582Z,55.86
2023-02-07T14:27:32.276Z,53.73
2023-02-07T14:30:30.829Z,53.80
2023-02-07T14:33:38.229Z,53.20
2023-02-07T14:36:18.351Z,53.71
2023-02-07T14:39:04.018Z,53.98
2023-02-07T14:41:37.740Z,53.59
2023-02-07T14:44:10.055Z,53.20
2023-02-07T14:46:41.869Z,53.16
2023-02-07T14:49:21.578Z,53.33
2023-02-07T14:51:55.228Z,54.17
2023-02-07T14:54:50.391Z,53.73
2023-02-07T14:57:43.738Z,54.43
2023-02-07T15:00:13.698Z,52.79
2023-02-07T15:02:55.381Z,53.80
2023-02-07T15:05:37.081Z,53.34
2023-02-07T15:08:03.895Z,53.18
2023-02-07T15:10:36.710Z,53.88
2023-02-07T15:13:17.488Z,54.31
2023-02-07T15:15:56.080Z,54.26
2023-02-07T15:18:26.446Z,54.79
2023-02-07T15:20:58.211Z,55.67
2023-02-07T15:23:28.856Z,56.50
2023-02-07T15:25:57.025Z,57.82
2023-02-07T15:28:28.112Z,57.76
2023-02-07T15:31:17.414Z,57.28
2023-02-07T15:33:47.093Z,57.11
2023-02-07T15:36:45.863Z,58.46
2023-02-07T15:39:20.056Z,59.47
2023-02-07T15:41:49.562Z,59.17
2023-02-07T15:44:30.221Z,59.75
2023-02-07T15:47:07.096Z,60.23
2023-02-07T15:49:40.720Z,61.11
2023-02-07T15:52:39.488Z,61.43
2023-02-07T15:55:38.042Z,61.22
2023-02-07T15:58:05.833Z,61.32
2023-02-07T16:00:40.085Z,60.44
2023-02-07T16:03:15.905Z,60.54
2023-02-07T16:05:42.854Z,61.47
2023-02-07T16:08:36.160Z,61.88
2023-02-07T16:11:28.020Z,61.74
2023-02-07T16:14:25.542Z,61.94
2023-02-07T16:16:58.341Z,62.50
2023-02-07T16:19:30.777Z,62.15
2023-02-07T16:22:06.980Z,61.86
2023-02-07T16:24:37.228Z,61.75
2023-02-07T16:27:06.500Z,62.81
2023-02-07T16:29:36.013Z,63.57
2023-02-07T16:32:03.086Z,64.13
2023-02-07T16:34:30.036Z,64.83
2023-02-07T16:36:57.212Z,65.06
2023-02-07T16:39:24.155Z,65.35
2023-02-07T16:41:56.548Z,65.09
2023-02-07T16:44:28.219Z,64.69
2023-02-07T16:46:55.247Z,65.12
2023-02-07T16:49:24.902Z,64.50
2023-02-07T16:51:52.791Z,64.19
2023-02-07T16:54:20.119Z,64.62
2023-02-07T16:56:51.064Z,65.22
2023-02-07T16:59:23.195Z,65.04
2023-02-07T17:01:52.813Z,66.19
2023-02-07T17:04:21.043Z,67.45
2023-02-07T17:06:48.627Z,67.47
2023-02-07T17:09:24.748Z,68.89
2023-02-07T17:11:53.485Z,70.34
2023-02-07T17:14:20.933Z,70.52
2023-02-07T17:16:48.264Z,71.22
2023-02-07T17:19:21.310Z,71.25
2023-02-07T17:21:48.638Z,72.27
2023-02-07T17:24:16.123Z,72.92
2023-02-07T17:26:47.236Z,73.35
2023-02-07T17:29:16.186Z,73.09
2023-02-07T17:31:43.552Z,73.59
2023-02-07T17:34:11.403Z,74.08
2023-02-07T17:36:43.523Z,74.67
2023-02-07T17:39:13.629Z,74.99
2023-02-07T17:41:40.676Z,75.15
2023-02-07T17:44:08.000Z,75.72
2023-02-07T17:46:35.335Z,76.40
2023-02-07T17:49:02.589Z,77.36
2023-02-07T17:51:29.854Z,77.86
2023-02-07T17:53:57.007Z,78.60
2023-02-07T17:56:30.424Z,79.19
2023-02-07T17:59:03.799Z,79.42
2023-02-07T18:01:32.223Z,79.64
2023-02-07T18:03:59.400Z,80.35
2023-02-07T18:06:29.454Z,80.41
2023-02-07T18:08:58.656Z,80.56
2023-02-07T18:11:27.233Z,81.24
2023-02-07T18:13:56.965Z,82.05
2023-02-07T18:16:26.579Z,82.61
2023-02-07T18:18:56.493Z,82.05
2023-02-07T18:21:23.862Z,82.54
2023-02-07T18:23:53.283Z,82.44
2023-02-07T18:26:21.026Z,82.61
2023-02-07T18:28:48.661Z,82.17
2023-02-07T18:31:20.143Z,82.25
2023-02-07T18:33:48.628Z,82.88
2023-02-07T18:36:16.382Z,83.14
2023-02-07T18:38:43.402Z,83.25
2023-02-07T18:41:20.608Z,82.36
2023-02-07T18:43:49.001Z,82.83
2023-02-07T18:46:19.342Z,83.19
2023-02-07T18:48:49.537Z,83.84
2023-02-07T18:51:18.065Z,84.04
2023-02-07T18:53:45.371Z,84.15
2023-02-07T18:56:19.813Z,84.36
2023-02-07T18:58:47.613Z,84.86
2023-02-07T19:01:20.264Z,84.28
2023-02-07T19:03:54.237Z,84.07
2023-02-07T19:06:23.476Z,84.13
2023-02-07T19:08:50.381Z,85.32
2023-02-07T19:11:17.907Z,85.54
2023-02-07T19:13:45.294Z,85.61
2023-02-07T19:16:18.920Z,85.81
2023-02-07T19:18:47.044Z,85.55
2023-02-07T19:21:19.029Z,85.25
2023-02-07T19:23:45.942Z,85.43
2023-02-07T19:26:13.026Z,86.17
2023-02-07T19:28:40.008Z,86.29
2023-02-07T19:31:09.792Z,86.41
2023-02-07T19:33:37.156Z,86.38
2023-02-07T19:36:06.840Z,87.68
2023-02-07T19:38:34.533Z,88.34
2023-02-07T19:41:01.817Z,88.90
2023-02-07T19:43:29.834Z,89.66
2023-02-07T19:45:57.029Z,90.15
2023-02-07T19:48:24.002Z,90.35
2023-02-07T19:51:25.051Z,91.15
2023-02-07T19:53:53.173Z,91.63
2023-02-07T19:56:24.246Z,92.26
2023-02-07T19:58:54.250Z,92.66
2023-02-07T20:01:25.071Z,93.19
2023-02-07T20:03:55.988Z,93.77
2023-02-07T20:06:29.616Z,94.38
2023-02-07T20:08:58.389Z,94.70
2023-02-07T20:11:25.676Z,95.13
2023-02-07T20:13:55.820Z,95.64
2023-02-07T20:16:26.870Z,96.45
2023-02-07T20:18:54.161Z,96.88
2023-02-07T20:21:27.278Z,97.33
2023-02-07T20:23:56.063Z,97.16
2023-02-07T20:26:33.258Z,97.26
2023-02-07T20:29:02.872Z,97.62
2023-02-07T20:31:31.846Z,98.28
2023-02-07T20:33:59.391Z,98.54
2023-02-07T20:36:26.742Z,99.25
2023-02-07T20:38:56.088Z,100.00
2023-02-07T20:41:29.875Z,99.39
2023-02-07T20:44:01.337Z,98.72
2023-02-07T20:46:30.490Z,98.87
2023-02-07T20:49:08.551Z,99.88
2023-02-07T20:51:35.784Z,99.78
2023-02-07T20:54:05.249Z,100.00
2023-02-07T20:56:33.810Z,99.78
2023-02-07T20:59:01.212Z,99.80
2023-02-07T21:01:31.373Z,99.13
2023-02-07T21:04:01.933Z,98.26
2023-02-07T21:06:30.104Z,98.21
2023-02-07T21:09:00.897Z,97.89
2023-02-07T21:11:36.197Z,99.01
2023-02-07T21:14:06.886Z,99.53
2023-02-07T21:16:34.986Z,99.99
2023-02-07T21:19:02.304Z,100.00
2023-02-07T21:21:29.412Z,100.00
2023-02-07T21:23:57.429Z,100.00
2023-02-07T21:26:26.775Z,100.00
2023-02-07T21:29:02.364Z,100.00
2023-02-07T21:31:31.028Z,100.00
2023-02-07T21:33:58.633Z,100.00
2023-02-07T21:36:30.688Z,100.00
2023-02-07T21:39:00.281Z,100.00
2023-02-07T21:41:28.957Z,100.00
2023-02-07T21:43:58.051Z,100.00
2023-02-07T21:46:32.689Z,100.00
2023-02-07T21:49:06.948Z,100.00
2023-02-07T21:51:36.170Z,100.00
2023-02-07T21:54:07.176Z,100.00
2023-02-07T21:56:37.365Z,100.00
2023-02-07T21:59:08.779Z,100.00
2023-02-07T22:01:38.489Z,100.00
2023-02-07T22:04:07.401Z,100.00
2023-02-07T22:06:34.312Z,100.00
2023-02-07T22:09:05.013Z,100.00
2023-02-07T22:11:34.975Z,100.00
2023-02-07T22:14:02.922Z,100.00
2023-02-07T22:16:31.325Z,100.00
2023-02-07T22:19:00.306Z,100.00
2023-02-07T22:21:34.224Z,100.00
2023-02-07T22:24:02.629Z,100.00
2023-02-07T22:26:30.579Z,100.00
2023-02-07T22:28:59.030Z,100.00
2023-02-07T22:31:32.637Z,100.00
2023-02-07T22:34:07.812Z,100.00
2023-02-07T22:36:37.503Z,100.00
2023-02-07T22:39:07.347Z,100.00
2023-02-07T22:41:35.229Z,100.00
2023-02-07T22:44:02.664Z,100.00
2023-02-07T22:46:30.390Z,100.00
2023-02-07T22:48:57.984Z,100.00
2023-02-07T22:51:32.536Z,100.00
2023-02-07T22:54:06.749Z,100.00
2023-02-07T22:56:36.152Z,100.00
2023-02-07T22:59:04.348Z,100.00
2023-02-07T23:01:35.492Z,100.00
2023-02-07T23:04:11.287Z,100.00
2023-02-07T23:06:38.541Z,100.00
2023-02-07T23:09:05.498Z,100.00
2023-02-07T23:11:34.914Z,100.00
2023-02-07T23:14:02.501Z,100.00
2023-02-07T23:16:31.223Z,100.00
2023-02-07T23:19:08.732Z,100.00
2023-02-07T23:21:35.770Z,100.00
2023-02-07T23:24:04.250Z,100.00
2023-02-07T23:26:31.590Z,100.00
2023-02-07T23:28:58.530Z,100.00
2023-02-07T23:31:26.684Z,100.00
2023-02-07T23:33:54.531Z,100.00
2023-02-07T23:36:22.198Z,100.00
2023-02-07T23:38:49.561Z,100.00
2023-02-07T23:41:16.913Z,100.00
2023-02-07T23:43:44.056Z,100.00
2023-02-07T23:46:13.119Z,100.00
2023-02-07T23:48:40.160Z,100.00
2023-02-07T23:51:07.533Z,100.00
2023-02-07T23:53:34.820Z,100.00
2023-02-07T23:56:04.128Z,100.00
2023-02-07T23:58:32.235Z,100.00
